createdAt,value
2023-04-20T00:00:38.669Z,9.62
2023-04-20T00:03:53.367Z,9.60
2023-04-20T00:06:58.372Z,9.57
2023-04-20T00:10:03.926Z,9.53
2023-04-20T00:13:08.150Z,9.49
2023-04-20T00:16:12.165Z,9.42
2023-04-20T00:19:16.442Z,9.34
2023-04-20T00:22:20.862Z,9.31
2023-04-20T00:25:24.829Z,9.28
2023-04-20T00:28:29.433Z,9.24
2023-04-20T00:31:33.473Z,9.21
2023-04-20T00:34:37.553Z,9.17
2023-04-20T00:37:41.601Z,9.10
2023-04-20T00:40:49.023Z,9.04
2023-04-20T00:43:54.105Z,8.98
2023-04-20T00:46:58.156Z,8.95
2023-04-20T00:50:03.748Z,8.93
2023-04-20T00:53:08.288Z,8.91
2023-04-20T00:56:14.303Z,8.88
2023-04-20T00:59:18.414Z,8.83
2023-04-20T01:02:23.436Z,8.81
2023-04-20T01:05:28.180Z,8.78
2023-04-20T01:08:32.603Z,8.77
2023-04-20T01:11:36.678Z,8.76
2023-04-20T01:14:40.952Z,8.73
2023-04-20T01:17:45.692Z,8.73
2023-04-20T01:20:49.909Z,8.75
2023-04-20T01:23:53.864Z,8.77
2023-04-20T01:26:57.953Z,8.78
2023-04-20T01:30:01.950Z,8.83
2023-04-20T01:33:06.011Z,8.88
2023-04-20T01:36:10.683Z,8.95
2023-04-20T01:39:15.024Z,9.00
2023-04-20T01:42:19.249Z,9.07
2023-04-20T01:45:23.269Z,9.10
2023-04-20T01:48:28.612Z,9.14
2023-04-20T01:51:34.036Z,9.20
2023-04-20T01:54:38.693Z,9.26
2023-04-20T01:57:44.680Z,9.32
2023-04-20T02:00:48.884Z,9.38
2023-04-20T02:03:53.068Z,9.44
2023-04-20T02:06:58.336Z,9.47
2023-04-20T02:10:03.587Z,9.49
2023-04-20T02:13:07.595Z,9.48
2023-04-20T02:16:11.841Z,9.47
2023-04-20T02:19:16.087Z,9.51
2023-04-20T02:22:20.224Z,9.56
2023-04-20T02:25:24.206Z,9.56
2023-04-20T02:28:28.297Z,9.54
2023-04-20T02:31:32.533Z,9.46
2023-04-20T02:34:36.636Z,9.43
2023-04-20T02:37:40.844Z,9.43
2023-04-20T02:40:45.150Z,9.44
2023-04-20T02:43:49.270Z,9.46
2023-04-20T02:46:53.386Z,9.47
2023-04-20T02:49:58.455Z,9.48
2023-04-20T02:53:02.522Z,9.47
2023-04-20T02:56:07.712Z,9.46
2023-04-20T02:59:23.373Z,9.44
2023-04-20T03:02:41.201Z,9.45
2023-04-20T03:05:45.492Z,9.45
2023-04-20T03:08:49.674Z,9.46
2023-04-20T03:12:22.939Z,9.48
2023-04-20T03:15:35.787Z,9.49
2023-04-20T03:18:44.940Z,9.46
2023-04-20T03:21:48.931Z,9.47
2023-04-20T03:24:53.596Z,9.49
2023-04-20T03:28:11.316Z,9.52
2023-04-20T03:31:16.193Z,9.53
2023-04-20T03:34:20.899Z,9.54
2023-04-20T03:37:24.905Z,9.56
2023-04-20T03:40:29.206Z,9.58
2023-04-20T03:43:33.114Z,9.57
2023-04-20T03:46:37.054Z,9.56
2023-04-20T03:49:41.067Z,9.58
2023-04-20T03:52:45.083Z,9.60
2023-04-20T03:55:49.204Z,9.65
2023-04-20T03:58:57.401Z,9.66
2023-04-20T04:02:05.923Z,9.62
2023-04-20T04:05:10.363Z,9.52
2023-04-20T04:08:14.486Z,9.50
2023-04-20T04:11:18.496Z,9.52
2023-04-20T04:14:23.232Z,9.58
2023-04-20T04:17:27.467Z,9.61
2023-04-20T04:20:31.774Z,9.64
2023-04-20T04:23:38.516Z,9.66
2023-04-20T04:26:51.170Z,9.66
2023-04-20T04:29:57.319Z,9.69
2023-04-20T04:33:04.883Z,9.70
2023-04-20T04:36:10.158Z,9.65
2023-04-20T04:39:14.118Z,9.65
2023-04-20T04:42:24.265Z,9.64
2023-04-20T04:45:28.535Z,9.65
2023-04-20T04:48:33.108Z,9.65
2023-04-20T04:51:37.424Z,9.64
2023-04-20T04:54:41.958Z,9.66
2023-04-20T04:57:46.078Z,9.69
2023-04-20T05:00:50.036Z,9.75
2023-04-20T05:03:54.241Z,9.81
2023-04-20T05:06:58.531Z,9.87
2023-04-20T05:10:02.554Z,9.96
2023-04-20T05:13:06.506Z,10.07
2023-04-20T05:16:11.422Z,10.21
2023-04-20T05:19:15.716Z,10.37
2023-04-20T05:22:20.044Z,10.54
2023-04-20T05:25:24.145Z,10.66
2023-04-20T05:28:28.179Z,10.76
2023-04-20T05:31:33.403Z,10.85
2023-04-20T05:34:37.952Z,10.91
2023-04-20T05:37:42.180Z,10.96
2023-04-20T05:40:46.374Z,11.01
2023-04-20T05:43:50.409Z,11.06
2023-04-20T05:46:54.636Z,11.15
2023-04-20T05:49:58.654Z,11.23
2023-04-20T05:53:02.968Z,11.28
2023-04-20T05:56:08.290Z,11.34
2023-04-20T05:59:12.327Z,11.37
2023-04-20T06:02:16.585Z,11.41
2023-04-20T06:05:21.636Z,11.38
2023-04-20T06:08:26.015Z,11.39
2023-04-20T06:11:30.032Z,11.42
2023-04-20T06:14:34.256Z,11.44
2023-04-20T06:17:41.380Z,11.50
2023-04-20T06:20:46.262Z,11.59
2023-04-20T06:23:50.704Z,11.69
2023-04-20T06:26:55.033Z,11.80
2023-04-20T06:29:59.045Z,11.90
2023-04-20T06:33:03.654Z,11.98
2023-04-20T06:36:08.589Z,12.07
2023-04-20T06:39:12.569Z,12.14
2023-04-20T06:42:16.556Z,12.22
2023-04-20T06:45:21.308Z,12.32
2023-04-20T06:48:32.163Z,12.45
2023-04-20T06:51:37.182Z,12.63
2023-04-20T06:54:41.202Z,12.77
2023-04-20T06:57:45.522Z,12.90
2023-04-20T07:00:49.540Z,13.02
2023-04-20T07:03:53.836Z,13.10
2023-04-20T07:06:57.856Z,13.17
2023-04-20T07:10:01.816Z,13.20
2023-04-20T07:13:05.807Z,13.22
2023-04-20T07:16:10.780Z,13.28
2023-04-20T07:19:14.807Z,13.35
2023-04-20T07:22:18.878Z,13.42
2023-04-20T07:25:23.417Z,13.50
2023-04-20T07:28:27.625Z,13.58
2023-04-20T07:31:32.943Z,13.66
2023-04-20T07:34:38.733Z,13.74
2023-04-20T07:37:42.853Z,13.84
2023-04-20T07:40:46.867Z,13.95
2023-04-20T07:43:51.512Z,14.07
2023-04-20T07:46:57.803Z,14.17
2023-04-20T07:50:02.710Z,14.30
2023-04-20T07:53:07.338Z,14.42
2023-04-20T07:56:11.357Z,14.51
2023-04-20T07:59:15.788Z,14.61
2023-04-20T08:02:19.970Z,14.71
2023-04-20T08:05:25.120Z,14.80
2023-04-20T08:08:29.720Z,14.87
2023-04-20T08:11:33.750Z,14.94
2023-04-20T08:14:38.366Z,15.01
2023-04-20T08:17:42.454Z,15.11
2023-04-20T08:20:46.552Z,15.21
2023-04-20T08:23:51.173Z,15.29
2023-04-20T08:26:55.007Z,15.38
2023-04-20T08:29:59.304Z,15.45
2023-04-20T08:33:03.355Z,15.54
2023-04-20T08:36:07.468Z,15.64
2023-04-20T08:39:14.127Z,15.71
2023-04-20T08:42:18.141Z,15.75
2023-04-20T08:45:23.104Z,15.79
2023-04-20T08:48:35.387Z,15.88
2023-04-20T08:51:40.218Z,16.01
2023-04-20T08:57:51.349Z,16.34
2023-04-20T09:00:55.453Z,16.45
2023-04-20T09:04:00.892Z,16.52
2023-04-20T09:07:05.087Z,16.54
2023-04-20T09:10:10.121Z,16.58
2023-04-20T09:13:24.077Z,16.61
2023-04-20T09:16:28.618Z,16.65
2023-04-20T09:19:32.647Z,16.67
2023-04-20T09:22:37.801Z,16.74
2023-04-20T09:25:43.803Z,16.78
2023-04-20T09:28:47.864Z,16.82
2023-04-20T09:31:52.453Z,16.91
2023-04-20T09:34:57.037Z,16.98
2023-04-20T09:38:01.156Z,17.01
2023-04-20T09:41:06.984Z,17.08
2023-04-20T09:44:15.610Z,17.15
2023-04-20T09:47:22.469Z,17.21
2023-04-20T09:50:34.941Z,17.26
2023-04-20T09:53:46.693Z,17.29
2023-04-20T09:56:51.112Z,17.26
2023-04-20T09:59:57.438Z,17.28
2023-04-20T10:03:01.845Z,17.39
2023-04-20T10:06:06.573Z,17.51
2023-04-20T10:09:26.305Z,17.60
2023-04-20T10:12:30.848Z,17.72
2023-04-20T10:15:42.348Z,17.77
2023-04-20T10:19:03.094Z,17.86
2023-04-20T10:22:09.023Z,17.96
2023-04-20T10:25:21.002Z,18.03
2023-04-20T10:28:25.612Z,18.04
2023-04-20T10:31:38.526Z,18.03
2023-04-20T10:34:42.617Z,18.02
2023-04-20T10:37:50.995Z,18.13
2023-04-20T10:40:55.470Z,18.26
2023-04-20T10:44:09.160Z,18.26
2023-04-20T10:47:15.306Z,18.21
2023-04-20T10:50:19.804Z,18.20
2023-04-20T10:53:24.443Z,18.25
2023-04-20T10:56:46.682Z,18.26
2023-04-20T10:59:51.224Z,18.25
2023-04-20T11:02:57.550Z,18.40
2023-04-20T11:06:04.210Z,18.60
2023-04-20T11:09:23.855Z,18.82
2023-04-20T11:12:39.429Z,19.11
2023-04-20T11:15:43.848Z,19.30
2023-04-20T11:18:55.026Z,19.37
2023-04-20T11:22:00.018Z,19.36
2023-04-20T11:25:09.307Z,19.32
2023-04-20T11:28:13.233Z,19.22
2023-04-20T11:31:18.676Z,19.15
2023-04-20T11:34:23.798Z,19.13
2023-04-20T11:37:28.897Z,19.17
2023-04-20T11:40:33.481Z,19.31
2023-04-20T11:43:37.498Z,19.47
2023-04-20T11:46:44.185Z,19.62
2023-04-20T11:49:48.138Z,19.75
2023-04-20T11:52:52.565Z,19.94
2023-04-20T11:55:56.942Z,20.16
2023-04-20T11:59:00.834Z,20.33
2023-04-20T12:02:05.734Z,20.44
2023-04-20T12:05:09.988Z,20.47
2023-04-20T12:08:14.363Z,20.40
2023-04-20T12:11:18.597Z,20.26
2023-04-20T12:14:22.683Z,20.11
2023-04-20T12:17:26.822Z,19.97
2023-04-20T12:20:31.317Z,19.81
2023-04-20T12:23:37.175Z,19.70
2023-04-20T12:26:41.109Z,19.63
2023-04-20T12:29:45.089Z,19.59
2023-04-20T12:32:49.128Z,19.60
2023-04-20T12:35:54.041Z,19.69
2023-04-20T12:38:58.516Z,19.75
2023-04-20T12:42:02.580Z,19.80
2023-04-20T12:45:07.813Z,19.98
2023-04-20T12:48:11.896Z,20.25
2023-04-20T12:51:15.984Z,20.36
2023-04-20T12:54:20.402Z,20.32
2023-04-20T12:57:24.632Z,20.24
2023-04-20T13:00:28.742Z,20.11
2023-04-20T13:03:32.820Z,20.02
2023-04-20T13:06:37.084Z,19.96
2023-04-20T13:09:41.023Z,19.91
2023-04-20T13:12:45.013Z,19.91
2023-04-20T13:15:49.027Z,20.08
2023-04-20T13:18:52.965Z,20.30
2023-04-20T13:21:57.717Z,20.44
2023-04-20T13:25:01.879Z,20.48
2023-04-20T13:28:06.112Z,20.44
2023-04-20T13:31:10.230Z,20.37
2023-04-20T13:34:14.336Z,20.30
2023-04-20T13:37:18.726Z,20.24
2023-04-20T13:40:22.741Z,20.18
2023-04-20T13:43:26.922Z,20.15
2023-04-20T13:46:31.694Z,20.15
2023-04-20T13:49:35.687Z,20.16
2023-04-20T13:52:39.678Z,20.15
2023-04-20T13:55:43.726Z,20.20
2023-04-20T13:58:47.812Z,20.40
2023-04-20T14:01:51.933Z,20.81
2023-04-20T14:04:59.375Z,21.11
2023-04-20T14:08:03.869Z,21.11
2023-04-20T14:11:07.987Z,20.96
2023-04-20T14:14:12.478Z,20.86
2023-04-20T14:17:19.337Z,20.97
2023-04-20T14:20:23.491Z,21.37
2023-04-20T14:23:27.518Z,21.80
2023-04-20T14:26:31.538Z,22.30
2023-04-20T14:29:35.659Z,22.85
2023-04-20T14:32:40.887Z,23.25
2023-04-20T14:35:46.462Z,23.42
2023-04-20T14:38:50.564Z,23.54
2023-04-20T14:41:54.585Z,23.57
2023-04-20T14:44:58.711Z,23.44
2023-04-20T14:48:03.202Z,23.27
2023-04-20T14:51:07.964Z,23.02
2023-04-20T14:54:11.936Z,22.74
2023-04-20T14:57:15.990Z,22.40
2023-04-20T15:00:20.600Z,22.14
2023-04-20T15:03:24.780Z,21.92
2023-04-20T15:06:29.057Z,21.70
2023-04-20T15:09:33.082Z,21.49
2023-04-20T15:12:37.088Z,21.35
2023-04-20T15:15:48.351Z,21.22
2023-04-20T15:18:54.805Z,21.13
2023-04-20T15:21:58.863Z,21.10
2023-04-20T15:25:04.550Z,21.05
2023-04-20T15:28:08.548Z,20.94
2023-04-20T15:31:16.978Z,20.76
2023-04-20T15:34:21.823Z,20.59
2023-04-20T15:37:26.125Z,20.40
2023-04-20T15:40:30.453Z,20.26
2023-04-20T15:43:34.483Z,20.10
2023-04-20T15:46:38.647Z,19.97
2023-04-20T15:49:42.707Z,19.99
2023-04-20T15:52:49.728Z,20.17
2023-04-20T15:55:53.913Z,20.36
2023-04-20T15:58:57.862Z,20.53
2023-04-20T16:02:01.965Z,20.65
2023-04-20T16:05:07.514Z,20.71
2023-04-20T16:08:13.157Z,20.69
2023-04-20T16:11:17.249Z,20.61
2023-04-20T16:14:21.463Z,20.47
2023-04-20T16:17:25.730Z,20.34
2023-04-20T16:20:29.683Z,20.19
2023-04-20T16:23:33.722Z,20.10
2023-04-20T16:26:39.523Z,20.04
2023-04-20T16:29:45.152Z,19.97
2023-04-20T16:32:50.082Z,19.90
2023-04-20T16:35:54.297Z,19.78
2023-04-20T16:38:58.406Z,19.64
2023-04-20T16:42:02.993Z,19.46
2023-04-20T16:45:07.971Z,19.27
2023-04-20T16:48:12.595Z,19.07
2023-04-20T16:51:16.940Z,18.89
2023-04-20T16:54:21.652Z,18.73
2023-04-20T16:57:25.890Z,18.59
2023-04-20T17:00:31.883Z,18.45
2023-04-20T17:03:36.129Z,18.31
2023-04-20T17:06:40.292Z,18.17
2023-04-20T17:09:44.307Z,18.01
2023-04-20T17:12:49.366Z,17.85
2023-04-20T17:15:53.658Z,17.71
2023-04-20T17:18:57.756Z,17.57
2023-04-20T17:34:53.957Z,17.48
2023-04-20T17:37:59.808Z,17.29
2023-04-20T17:41:05.158Z,17.11
2023-04-20T17:44:11.622Z,16.90
2023-04-20T17:47:16.122Z,16.71
2023-04-20T17:50:20.477Z,16.51
2023-04-20T17:53:24.503Z,16.32
2023-04-20T17:56:28.615Z,16.14
2023-04-20T17:59:32.629Z,15.96
2023-04-20T18:02:36.653Z,15.78
2023-04-20T18:05:41.773Z,15.61
2023-04-20T18:08:46.619Z,15.43
2023-04-20T18:11:50.615Z,15.25
2023-04-20T18:14:54.769Z,15.09
2023-04-20T18:17:58.733Z,14.93
2023-04-20T18:21:04.222Z,14.78
2023-04-20T18:24:08.338Z,14.64
2023-04-20T18:27:12.565Z,14.50
2023-04-20T18:30:18.489Z,14.36
2023-04-20T18:33:22.460Z,14.23
2023-04-20T18:36:26.945Z,14.12
2023-04-20T18:39:30.837Z,13.98
2023-04-20T18:42:34.760Z,13.82
2023-04-20T18:45:38.808Z,13.70
2023-04-20T18:48:42.694Z,13.58
2023-04-20T18:51:46.937Z,13.49
2023-04-20T18:54:51.860Z,13.38
2023-04-20T18:57:55.772Z,13.27
2023-04-20T19:01:02.196Z,13.18
2023-04-20T19:04:10.551Z,13.11
2023-04-20T19:07:14.658Z,13.05
2023-04-20T19:10:18.649Z,12.98
2023-04-20T19:13:23.226Z,12.91
2023-04-20T19:16:30.236Z,12.85
2023-04-20T19:19:34.824Z,12.78
2023-04-20T19:22:38.870Z,12.70
2023-04-20T19:25:42.779Z,12.63
2023-04-20T19:28:46.808Z,12.57
2023-04-20T19:31:50.817Z,12.52
2023-04-20T19:34:57.498Z,12.48
2023-04-20T19:38:01.517Z,12.45
2023-04-20T19:41:06.384Z,12.42
2023-04-20T19:44:12.094Z,12.39
2023-04-20T19:47:16.229Z,12.35
2023-04-20T19:50:20.242Z,12.33
2023-04-20T19:53:25.325Z,12.30
2023-04-20T19:56:29.364Z,12.28
2023-04-20T19:59:33.264Z,12.27
2023-04-20T20:02:38.715Z,12.25
2023-04-20T20:05:43.884Z,12.22
2023-04-20T20:08:48.605Z,12.21
2023-04-20T20:11:52.530Z,12.20
2023-04-20T20:14:56.564Z,12.17
2023-04-20T20:18:00.592Z,12.14
2023-04-20T20:21:04.902Z,12.11
2023-04-20T20:24:08.832Z,12.07
2023-04-20T20:27:12.857Z,12.03
2023-04-20T20:30:17.112Z,11.99
2023-04-20T20:33:21.061Z,11.96
2023-04-20T20:36:25.284Z,11.91
2023-04-20T20:39:29.176Z,11.87
2023-04-20T20:42:38.959Z,11.81
2023-04-20T20:45:43.173Z,11.76
2023-04-20T20:48:47.181Z,11.70
2023-04-20T20:51:52.181Z,11.65
2023-04-20T20:54:56.236Z,11.60
2023-04-20T20:58:00.639Z,11.56
2023-04-20T21:01:04.589Z,11.53
2023-04-20T21:04:08.955Z,11.51
2023-04-20T21:07:13.054Z,11.48
2023-04-20T21:10:17.238Z,11.45
2023-04-20T21:13:22.105Z,11.43
2023-04-20T21:16:26.138Z,11.42
2023-04-20T21:19:30.208Z,11.38
2023-04-20T21:22:34.333Z,11.37
2023-04-20T21:25:38.345Z,11.37
2023-04-20T21:28:42.669Z,11.36
2023-04-20T21:31:46.947Z,11.37
2023-04-20T21:34:51.930Z,11.35
2023-04-20T21:37:56.153Z,11.35
2023-04-20T21:41:00.307Z,11.35
2023-04-20T21:44:04.402Z,11.35
2023-04-20T21:47:08.501Z,11.35
2023-04-20T21:50:12.626Z,11.35
2023-04-20T21:53:16.736Z,11.35
2023-04-20T21:56:20.670Z,11.36
2023-04-20T21:59:24.665Z,11.38
2023-04-20T22:02:28.847Z,11.38
2023-04-20T22:05:33.425Z,11.39
2023-04-20T22:08:40.082Z,11.41
2023-04-20T22:11:44.216Z,11.41
2023-04-20T22:14:48.231Z,11.42
2023-04-20T22:17:52.578Z,11.42
2023-04-20T22:20:57.077Z,11.41
2023-04-20T22:24:01.299Z,11.41
2023-04-20T22:27:05.423Z,11.39
2023-04-20T22:30:09.984Z,11.38
2023-04-20T22:33:13.962Z,11.36
2023-04-20T22:36:18.809Z,11.34
2023-04-20T22:39:23.350Z,11.31
2023-04-20T22:42:27.446Z,11.28
2023-04-20T22:45:31.465Z,11.25
2023-04-20T22:48:35.444Z,11.22
2023-04-20T22:51:39.488Z,11.18
2023-04-20T22:54:48.368Z,11.14
2023-04-20T22:57:52.526Z,11.11
2023-04-20T23:00:56.485Z,11.09
2023-04-20T23:04:00.852Z,11.06
2023-04-20T23:07:05.304Z,11.04
2023-04-20T23:10:11.061Z,11.02
2023-04-20T23:13:18.338Z,10.98
2023-04-20T23:16:23.293Z,10.94
2023-04-20T23:19:29.194Z,10.92
2023-04-20T23:22:33.159Z,10.89
2023-04-20T23:25:37.771Z,10.86
2023-04-20T23:28:41.819Z,10.83
2023-04-20T23:31:46.082Z,10.81
2023-04-20T23:34:50.247Z,10.79
2023-04-20T23:37:55.588Z,10.76
2023-04-20T23:40:59.531Z,10.72
2023-04-20T23:44:03.637Z,10.68
2023-04-20T23:47:07.621Z,10.63
2023-04-20T23:50:11.736Z,10.58
2023-04-20T23:53:15.868Z,10.55
2023-04-20T23:56:19.891Z,10.51
2023-04-20T23:59:24.295Z,10.49
